sensor_id;sensor_type;location;lat;lon;timestamp;pressure;altitude;pressure_sealevel;temperature;humidity
7760;BME280;3924;48.830;9.262;2023-07-31T00:01:12;98615.94;;;17.56;65.10
7760;BME280;3924;48.830;9.262;2023-07-31T00:03:38;98616.63;;;17.53;65.10
7760;BME280;3924;48.830;9.262;2023-07-31T00:06:05;98615.03;;;17.52;65.04
7760;BME280;3924;48.830;9.262;2023-07-31T00:08:32;98619.59;;;17.48;65.10
7760;BME280;3924;48.830;9.262;2023-07-31T00:10:58;98619.91;;;17.46;65.56
7760;BME280;3924;48.830;9.262;2023-07-31T00:13:25;98619.13;;;17.46;65.24
7760;BME280;3924;48.830;9.262;2023-07-31T00:15:51;98610.56;;;17.47;65.30
7760;BME280;3924;48.830;9.262;2023-07-31T00:18:18;98620.06;;;17.50;65.44
7760;BME280;3924;48.830;9.262;2023-07-31T00:20:44;98621.19;;;17.49;65.39
7760;BME280;3924;48.830;9.262;2023-07-31T00:23:10;98621.88;;;17.46;65.53
7760;BME280;3924;48.830;9.262;2023-07-31T00:25:37;98624.16;;;17.44;65.40
7760;BME280;3924;48.830;9.262;2023-07-31T00:28:04;98625.25;;;17.43;65.61
7760;BME280;3924;48.830;9.262;2023-07-31T00:30:31;98618.41;;;17.37;65.53
7760;BME280;3924;48.830;9.262;2023-07-31T00:32:58;98613.72;;;17.37;65.56
7760;BME280;3924;48.830;9.262;2023-07-31T00:35:24;98609.03;;;17.38;65.71
7760;BME280;3924;48.830;9.262;2023-07-31T00:37:51;98612.25;;;17.40;65.68
7760;BME280;3924;48.830;9.262;2023-07-31T00:40:17;98618.41;;;17.37;65.78
7760;BME280;3924;48.830;9.262;2023-07-31T00:42:43;98617.47;;;17.33;65.67
7760;BME280;3924;48.830;9.262;2023-07-31T00:45:10;98617.00;;;17.31;66.05
7760;BME280;3924;48.830;9.262;2023-07-31T00:47:37;98621.09;;;17.25;65.90
7760;BME280;3924;48.830;9.262;2023-07-31T00:50:04;98630.75;;;17.22;66.23
7760;BME280;3924;48.830;9.262;2023-07-31T00:52:31;98621.63;;;17.18;66.12
7760;BME280;3924;48.830;9.262;2023-07-31T00:54:58;98628.09;;;17.13;66.27
7760;BME280;3924;48.830;9.262;2023-07-31T00:57:25;98622.16;;;17.11;66.43
7760;BME280;3924;48.830;9.262;2023-07-31T00:59:52;98611.53;;;17.10;66.69
7760;BME280;3924;48.830;9.262;2023-07-31T01:02:18;98617.31;;;17.08;66.45
7760;BME280;3924;48.830;9.262;2023-07-31T01:04:45;98614.91;;;17.07;66.64
7760;BME280;3924;48.830;9.262;2023-07-31T01:10:23;98618.63;;;17.11;66.57
7760;BME280;3924;48.830;9.262;2023-07-31T01:12:53;98614.38;;;17.13;66.66
7760;BME280;3924;48.830;9.262;2023-07-31T01:15:20;98609.59;;;17.10;66.82
7760;BME280;3924;48.830;9.262;2023-07-31T01:17:47;98609.09;;;17.08;67.10
7760;BME280;3924;48.830;9.262;2023-07-31T01:20:17;98607.03;;;17.05;67.11
7760;BME280;3924;48.830;9.262;2023-07-31T01:23:19;98605.44;;;17.04;67.09
7760;BME280;3924;48.830;9.262;2023-07-31T01:31:23;98595.94;;;17.02;67.36
7760;BME280;3924;48.830;9.262;2023-07-31T01:33:53;98583.88;;;17.03;67.44
7760;BME280;3924;48.830;9.262;2023-07-31T01:36:21;98588.03;;;17.09;67.64
7760;BME280;3924;48.830;9.262;2023-07-31T01:38:48;98582.84;;;17.07;67.60
7760;BME280;3924;48.830;9.262;2023-07-31T01:41:17;98578.97;;;17.08;67.44
7760;BME280;3924;48.830;9.262;2023-07-31T01:43:45;98575.56;;;17.11;67.37
7760;BME280;3924;48.830;9.262;2023-07-31T01:46:11;98571.59;;;17.09;67.59
7760;BME280;3924;48.830;9.262;2023-07-31T01:48:38;98573.50;;;17.08;67.75
7760;BME280;3924;48.830;9.262;2023-07-31T01:51:04;98578.16;;;17.08;67.63
7760;BME280;3924;48.830;9.262;2023-07-31T01:53:31;98578.16;;;17.08;67.73
7760;BME280;3924;48.830;9.262;2023-07-31T01:55:58;98573.72;;;17.03;67.87
7760;BME280;3924;48.830;9.262;2023-07-31T01:58:25;98573.22;;;17.01;67.88
7760;BME280;3924;48.830;9.262;2023-07-31T02:00:51;98570.50;;;17.01;68.38
7760;BME280;3924;48.830;9.262;2023-07-31T02:03:18;98570.72;;;16.96;68.10
7760;BME280;3924;48.830;9.262;2023-07-31T02:05:48;98566.69;;;16.93;68.32
7760;BME280;3924;48.830;9.262;2023-07-31T02:08:15;98569.75;;;16.92;68.27
7760;BME280;3924;48.830;9.262;2023-07-31T02:10:42;98563.16;;;16.93;68.34
7760;BME280;3924;48.830;9.262;2023-07-31T02:13:09;98561.09;;;16.90;68.38
7760;BME280;3924;48.830;9.262;2023-07-31T02:15:36;98558.47;;;16.93;68.46
7760;BME280;3924;48.830;9.262;2023-07-31T02:18:03;98552.69;;;16.95;68.16
7760;BME280;3924;48.830;9.262;2023-07-31T02:20:29;98550.41;;;16.97;68.30
7760;BME280;3924;48.830;9.262;2023-07-31T02:22:56;98548.00;;;16.95;68.51
7760;BME280;3924;48.830;9.262;2023-07-31T02:25:22;98546.06;;;16.96;68.37
7760;BME280;3924;48.830;9.262;2023-07-31T02:27:49;98545.56;;;16.94;68.51
7760;BME280;3924;48.830;9.262;2023-07-31T02:30:15;98540.09;;;16.94;68.29
7760;BME280;3924;48.830;9.262;2023-07-31T02:32:42;98540.09;;;16.94;68.40
7760;BME280;3924;48.830;9.262;2023-07-31T02:35:08;98545.56;;;16.94;68.54
7760;BME280;3924;48.830;9.262;2023-07-31T02:37:36;98540.09;;;16.94;68.64
7760;BME280;3924;48.830;9.262;2023-07-31T02:40:02;98538.50;;;16.93;68.65
7760;BME280;3924;48.830;9.262;2023-07-31T02:42:29;98532.41;;;16.87;68.75
7760;BME280;3924;48.830;9.262;2023-07-31T02:44:55;98533.22;;;16.88;68.90
7760;BME280;3924;48.830;9.262;2023-07-31T02:47:22;98525.69;;;16.85;68.93
7760;BME280;3924;48.830;9.262;2023-07-31T02:49:49;98524.75;;;16.81;68.87
7760;BME280;3924;48.830;9.262;2023-07-31T02:52:15;98519.25;;;16.81;68.99
7760;BME280;3924;48.830;9.262;2023-07-31T02:54:42;98513.94;;;16.84;68.92
7760;BME280;3924;48.830;9.262;2023-07-31T02:57:08;98521.16;;;16.89;68.76
7760;BME280;3924;48.830;9.262;2023-07-31T02:59:35;98515.69;;;16.89;68.84
7760;BME280;3924;48.830;9.262;2023-07-31T03:02:02;98506.97;;;16.87;68.90
7760;BME280;3924;48.830;9.262;2023-07-31T03:04:28;98513.13;;;16.84;68.86
7760;BME280;3924;48.830;9.262;2023-07-31T03:06:55;98516.22;;;16.82;68.90
7760;BME280;3924;48.830;9.262;2023-07-31T03:09:21;98513.94;;;16.84;68.98
7760;BME280;3924;48.830;9.262;2023-07-31T03:11:48;98517.00;;;16.83;69.17
7760;BME280;3924;48.830;9.262;2023-07-31T03:14:14;98518.16;;;16.82;69.13
7760;BME280;3924;48.830;9.262;2023-07-31T03:16:43;98519.25;;;16.81;68.87
7760;BME280;3924;48.830;9.262;2023-07-31T03:19:10;98519.94;;;16.78;69.04
7760;BME280;3924;48.830;9.262;2023-07-31T03:21:36;98525.41;;;16.78;69.05
7760;BME280;3924;48.830;9.262;2023-07-31T03:24:03;98522.22;;;16.76;69.01
7760;BME280;3924;48.830;9.262;2023-07-31T03:26:31;98517.41;;;16.73;69.26
7760;BME280;3924;48.830;9.262;2023-07-31T03:28:58;98512.88;;;16.77;69.10
7760;BME280;3924;48.830;9.262;2023-07-31T03:31:25;98515.59;;;16.77;69.26
7760;BME280;3924;48.830;9.262;2023-07-31T03:33:51;98522.22;;;16.76;69.19
7760;BME280;3924;48.830;9.262;2023-07-31T03:36:18;98520.63;;;16.75;69.19
7760;BME280;3924;48.830;9.262;2023-07-31T03:38:46;98519.34;;;16.72;69.33
7760;BME280;3924;48.830;9.262;2023-07-31T03:41:12;98518.19;;;16.73;69.33
7760;BME280;3924;48.830;9.262;2023-07-31T03:43:39;98529.03;;;16.70;69.33
7760;BME280;3924;48.830;9.262;2023-07-31T03:46:05;98522.13;;;16.63;69.46
7760;BME280;3924;48.830;9.262;2023-07-31T03:48:32;98523.09;;;16.59;69.45
7760;BME280;3924;48.830;9.262;2023-07-31T03:50:58;98514.97;;;16.50;69.69
7760;BME280;3924;48.830;9.262;2023-07-31T03:55:59;98524.13;;;16.54;69.57
7760;BME280;3924;48.830;9.262;2023-07-31T03:58:26;98522.44;;;16.62;69.63
7760;BME280;3924;48.830;9.262;2023-07-31T04:00:52;98519.38;;;16.63;69.38
7760;BME280;3924;48.830;9.262;2023-07-31T04:03:19;98526.44;;;16.64;69.27
7760;BME280;3924;48.830;9.262;2023-07-31T04:05:45;98521.13;;;16.68;69.17
7760;BME280;3924;48.830;9.262;2023-07-31T04:08:12;98518.53;;;16.72;68.86
7760;BME280;3924;48.830;9.262;2023-07-31T04:10:38;98521.53;;;16.79;68.83
7760;BME280;3924;48.830;9.262;2023-07-31T04:13:05;98523.94;;;16.80;68.84
7760;BME280;3924;48.830;9.262;2023-07-31T04:15:31;98520.53;;;16.83;68.83
7760;BME280;3924;48.830;9.262;2023-07-31T04:17:57;98520.66;;;16.87;68.64
7760;BME280;3924;48.830;9.262;2023-07-31T04:20:24;98513.84;;;16.93;68.41
7760;BME280;3924;48.830;9.262;2023-07-31T04:22:51;98515.72;;;17.01;68.17
7760;BME280;3924;48.830;9.262;2023-07-31T04:25:17;98513.13;;;17.05;68.26
7760;BME280;3924;48.830;9.262;2023-07-31T04:27:44;98502.97;;;17.05;68.21
7760;BME280;3924;48.830;9.262;2023-07-31T04:30:10;98514.38;;;17.07;67.97
7760;BME280;3924;48.830;9.262;2023-07-31T04:32:37;98501.63;;;17.11;67.92
7760;BME280;3924;48.830;9.262;2023-07-31T04:35:03;98504.00;;;17.13;68.05
7760;BME280;3924;48.830;9.262;2023-07-31T04:37:30;98504.00;;;17.13;67.78
7760;BME280;3924;48.830;9.262;2023-07-31T04:39:57;98496.25;;;17.15;67.74
7760;BME280;3924;48.830;9.262;2023-07-31T04:42:23;98497.53;;;17.17;67.64
7760;BME280;3924;48.830;9.262;2023-07-31T04:44:50;98510.53;;;17.20;67.72
7760;BME280;3924;48.830;9.262;2023-07-31T04:47:16;98508.28;;;17.22;67.38
7760;BME280;3924;48.830;9.262;2023-07-31T04:49:42;98513.53;;;17.28;67.20
7760;BME280;3924;48.830;9.262;2023-07-31T04:52:09;98513.19;;;17.29;67.02
7760;BME280;3924;48.830;9.262;2023-07-31T04:54:35;98504.66;;;17.31;67.18
7760;BME280;3924;48.830;9.262;2023-07-31T04:57:02;98508.78;;;17.37;67.14
7760;BME280;3924;48.830;9.262;2023-07-31T04:59:29;98501.00;;;17.39;67.06
7760;BME280;3924;48.830;9.262;2023-07-31T05:01:55;98498.72;;;17.41;66.87
7760;BME280;3924;48.830;9.262;2023-07-31T05:04:22;98507.41;;;17.43;66.93
7760;BME280;3924;48.830;9.262;2023-07-31T05:06:49;98503.66;;;17.47;66.63
7760;BME280;3924;48.830;9.262;2023-07-31T05:09:15;98507.69;;;17.50;66.52
7760;BME280;3924;48.830;9.262;2023-07-31T05:11:42;98500.56;;;17.49;66.73
7760;BME280;3924;48.830;9.262;2023-07-31T05:14:09;98492.03;;;17.50;66.65
7760;BME280;3924;48.830;9.262;2023-07-31T05:16:35;98494.78;;;17.50;66.73
7760;BME280;3924;48.830;9.262;2023-07-31T05:19:02;98486.41;;;17.47;66.59
7760;BME280;3924;48.830;9.262;2023-07-31T05:21:29;98491.09;;;17.46;66.84
7760;BME280;3924;48.830;9.262;2023-07-31T05:23:55;98493.03;;;17.46;66.72
7760;BME280;3924;48.830;9.262;2023-07-31T05:26:22;98492.25;;;17.45;66.76
7760;BME280;3924;48.830;9.262;2023-07-31T05:28:49;98492.25;;;17.45;66.86
7760;BME280;3924;48.830;9.262;2023-07-31T05:31:15;98494.78;;;17.50;66.93
7760;BME280;3924;48.830;9.262;2023-07-31T05:33:42;98496.94;;;17.57;66.60
7760;BME280;3924;48.830;9.262;2023-07-31T05:36:08;98503.34;;;17.61;66.60
7760;BME280;3924;48.830;9.262;2023-07-31T05:38:35;98497.19;;;17.64;66.63
7760;BME280;3924;48.830;9.262;2023-07-31T05:41:02;98503.84;;;17.75;66.25
7760;BME280;3924;48.830;9.262;2023-07-31T05:43:28;98502.63;;;17.85;66.21
7760;BME280;3924;48.830;9.262;2023-07-31T05:45:55;98502.16;;;17.95;65.78
7760;BME280;3924;48.830;9.262;2023-07-31T05:48:21;98499.06;;;17.97;65.93
7760;BME280;3924;48.830;9.262;2023-07-31T05:50:48;98494.06;;;17.99;65.91
7760;BME280;3924;48.830;9.262;2023-07-31T05:53:15;98497.25;;;18.13;65.69
7760;BME280;3924;48.830;9.262;2023-07-31T05:55:41;98493.34;;;18.14;65.43
7760;BME280;3924;48.830;9.262;2023-07-31T05:58:08;98486.28;;;18.13;65.61
7760;BME280;3924;48.830;9.262;2023-07-31T06:00:34;98491.06;;;18.16;65.69
7760;BME280;3924;48.830;9.262;2023-07-31T06:03:01;98491.75;;;18.13;65.49
7760;BME280;3924;48.830;9.262;2023-07-31T06:05:27;98492.22;;;18.15;65.71
7760;BME280;3924;48.830;9.262;2023-07-31T06:07:57;98487.97;;;18.18;65.54
7760;BME280;3924;48.830;9.262;2023-07-31T06:10:23;98482.47;;;18.18;65.58
7760;BME280;3924;48.830;9.262;2023-07-31T06:12:52;98492.88;;;18.24;65.46
7760;BME280;3924;48.830;9.262;2023-07-31T06:15:18;98495.28;;;18.26;65.42
7760;BME280;3924;48.830;9.262;2023-07-31T06:17:47;98492.88;;;18.37;65.24
7760;BME280;3924;48.830;9.262;2023-07-31T06:20:14;98489.31;;;18.48;64.96
7760;BME280;3924;48.830;9.262;2023-07-31T06:22:41;98499.97;;;18.90;64.26
7760;BME280;3924;48.830;9.262;2023-07-31T06:25:07;98498.38;;;19.17;63.60
7760;BME280;3924;48.830;9.262;2023-07-31T06:27:37;98491.19;;;19.12;63.58
7760;BME280;3924;48.830;9.262;2023-07-31T06:30:04;98491.53;;;19.11;63.48
7760;BME280;3924;48.830;9.262;2023-07-31T06:32:30;98492.53;;;19.19;63.55
7760;BME280;3924;48.830;9.262;2023-07-31T06:34:57;98494.69;;;19.41;62.89
7760;BME280;3924;48.830;9.262;2023-07-31T06:37:26;98489.72;;;19.59;62.55
7760;BME280;3924;48.830;9.262;2023-07-31T06:39:52;98484.00;;;19.52;62.47
7760;BME280;3924;48.830;9.262;2023-07-31T06:42:19;98487.50;;;19.64;62.26
7760;BME280;3924;48.830;9.262;2023-07-31T06:44:45;98502.47;;;19.67;62.34
7760;BME280;3924;48.830;9.262;2023-07-31T06:47:13;98493.16;;;19.56;62.36
7760;BME280;3924;48.830;9.262;2023-07-31T06:49:39;98490.91;;;19.46;62.45
7760;BME280;3924;48.830;9.262;2023-07-31T06:52:06;98502.16;;;19.40;62.69
7760;BME280;3924;48.830;9.262;2023-07-31T06:54:33;98501.88;;;19.58;62.34
7760;BME280;3924;48.830;9.262;2023-07-31T06:56:59;98497.00;;;19.99;61.12
7760;BME280;3924;48.830;9.262;2023-07-31T06:59:25;98499.34;;;20.32;60.56
7760;BME280;3924;48.830;9.262;2023-07-31T07:01:52;98490.44;;;20.54;59.88
7760;BME280;3924;48.830;9.262;2023-07-31T07:04:18;98495.00;;;20.46;59.86
7760;BME280;3924;48.830;9.262;2023-07-31T07:06:45;98489.47;;;20.46;60.01
7760;BME280;3924;48.830;9.262;2023-07-31T07:09:11;98498.91;;;20.65;59.64
7760;BME280;3924;48.830;9.262;2023-07-31T07:11:38;98496.78;;;20.93;59.00
7760;BME280;3924;48.830;9.262;2023-07-31T07:14:05;98486.75;;;21.04;58.37
7760;BME280;3924;48.830;9.262;2023-07-31T07:16:31;98488.44;;;21.09;58.07
7760;BME280;3924;48.830;9.262;2023-07-31T07:18:58;98492.53;;;21.19;57.97
7760;BME280;3924;48.830;9.262;2023-07-31T07:21:30;98487.66;;;21.51;57.30
7760;BME280;3924;48.830;9.262;2023-07-31T07:23:57;98483.19;;;21.66;57.17
7760;BME280;3924;48.830;9.262;2023-07-31T07:26:23;98478.31;;;21.55;56.91
7760;BME280;3924;48.830;9.262;2023-07-31T07:28:50;98476.31;;;21.33;57.47
7760;BME280;3924;48.830;9.262;2023-07-31T07:31:16;98463.63;;;21.28;57.37
7760;BME280;3924;48.830;9.262;2023-07-31T07:33:43;98464.41;;;21.29;57.27
7760;BME280;3924;48.830;9.262;2023-07-31T07:36:09;98467.88;;;21.26;57.32
7760;BME280;3924;48.830;9.262;2023-07-31T07:38:36;98468.03;;;21.14;57.72
7760;BME280;3924;48.830;9.262;2023-07-31T07:41:04;98474.09;;;21.00;57.62
7760;BME280;3924;48.830;9.262;2023-07-31T07:43:31;98475.31;;;20.83;58.27
7760;BME280;3924;48.830;9.262;2023-07-31T07:45:57;98474.28;;;20.72;58.29
7760;BME280;3924;48.830;9.262;2023-07-31T07:48:24;98468.13;;;20.79;57.91
7760;BME280;3924;48.830;9.262;2023-07-31T07:50:51;98472.13;;;20.81;57.86
7760;BME280;3924;48.830;9.262;2023-07-31T07:53:18;98460.97;;;20.93;57.68
7760;BME280;3924;48.830;9.262;2023-07-31T07:55:44;98471.75;;;21.02;57.36
7760;BME280;3924;48.830;9.262;2023-07-31T07:58:11;98470.34;;;20.92;57.57
7760;BME280;3924;48.830;9.262;2023-07-31T08:00:38;98467.03;;;20.83;57.85
7760;BME280;3924;48.830;9.262;2023-07-31T08:03:04;98465.06;;;20.84;57.61
7760;BME280;3924;48.830;9.262;2023-07-31T08:05:31;98465.31;;;20.94;57.36
7760;BME280;3924;48.830;9.262;2023-07-31T08:08:00;98460.19;;;21.16;56.79
7760;BME280;3924;48.830;9.262;2023-07-31T08:10:27;98454.00;;;21.65;55.97
7760;BME280;3924;48.830;9.262;2023-07-31T08:12:54;98453.69;;;21.93;55.16
7760;BME280;3924;48.830;9.262;2023-07-31T08:15:20;98454.50;;;21.70;55.44
7760;BME280;3924;48.830;9.262;2023-07-31T08:17:47;98460.53;;;21.76;55.41
7760;BME280;3924;48.830;9.262;2023-07-31T08:20:14;98457.31;;;21.74;55.44
7760;BME280;3924;48.830;9.262;2023-07-31T08:22:41;98449.47;;;21.76;55.36
7760;BME280;3924;48.830;9.262;2023-07-31T08:25:08;98450.63;;;21.52;55.80
7760;BME280;3924;48.830;9.262;2023-07-31T08:27:34;98453.28;;;21.45;55.88
7760;BME280;3924;48.830;9.262;2023-07-31T08:30:01;98454.88;;;21.69;55.39
7760;BME280;3924;48.830;9.262;2023-07-31T08:32:27;98448.66;;;21.52;55.61
7760;BME280;3924;48.830;9.262;2023-07-31T08:34:54;98446.53;;;21.42;55.74
7760;BME280;3924;48.830;9.262;2023-07-31T08:37:20;98444.25;;;21.48;55.79
7760;BME280;3924;48.830;9.262;2023-07-31T08:39:47;98439.09;;;21.92;54.78
7760;BME280;3924;48.830;9.262;2023-07-31T08:42:13;98446.31;;;22.00;54.41
7760;BME280;3924;48.830;9.262;2023-07-31T08:44:40;98432.69;;;21.88;54.66
7760;BME280;3924;48.830;9.262;2023-07-31T08:47:07;98429.53;;;21.86;54.79
7760;BME280;3924;48.830;9.262;2023-07-31T08:49:35;98423.25;;;22.12;54.26
7760;BME280;3924;48.830;9.262;2023-07-31T08:52:03;98423.53;;;22.33;53.93
7760;BME280;3924;48.830;9.262;2023-07-31T08:54:30;98422.34;;;22.31;53.75
7760;BME280;3924;48.830;9.262;2023-07-31T08:56:59;98432.53;;;22.57;53.17
7760;BME280;3924;48.830;9.262;2023-07-31T08:59:31;98430.50;;;22.84;52.69
7760;BME280;3924;48.830;9.262;2023-07-31T09:02:03;98429.78;;;22.87;52.41
7760;BME280;3924;48.830;9.262;2023-07-31T09:04:32;98440.94;;;22.98;52.27
7760;BME280;3924;48.830;9.262;2023-07-31T09:07:01;98435.06;;;22.99;52.07
7760;BME280;3924;48.830;9.262;2023-07-31T09:09:32;98420.22;;;23.14;52.01
7760;BME280;3924;48.830;9.262;2023-07-31T09:11:59;98411.94;;;23.18;51.69
7760;BME280;3924;48.830;9.262;2023-07-31T09:14:26;98411.25;;;23.28;51.66
7760;BME280;3924;48.830;9.262;2023-07-31T09:16:56;98415.94;;;23.20;51.59
7760;BME280;3924;48.830;9.262;2023-07-31T09:19:32;98411.28;;;23.32;51.58
7760;BME280;3924;48.830;9.262;2023-07-31T09:22:00;98419.41;;;23.55;51.05
7760;BME280;3924;48.830;9.262;2023-07-31T09:24:28;98417.38;;;23.07;51.72
7760;BME280;3924;48.830;9.262;2023-07-31T09:26:57;98423.56;;;22.97;52.27
7760;BME280;3924;48.830;9.262;2023-07-31T09:29:25;98409.66;;;23.27;51.47
7760;BME280;3924;48.830;9.262;2023-07-31T09:31:54;98417.94;;;23.64;50.59
7760;BME280;3924;48.830;9.262;2023-07-31T09:34:29;98398.56;;;23.64;50.78
7760;BME280;3924;48.830;9.262;2023-07-31T09:37:01;98400.63;;;23.78;50.34
7760;BME280;3924;48.830;9.262;2023-07-31T09:39:29;98390.50;;;24.00;49.83
7760;BME280;3924;48.830;9.262;2023-07-31T09:41:56;98403.00;;;23.80;50.26
7760;BME280;3924;48.830;9.262;2023-07-31T09:44:38;98400.97;;;23.29;51.04
7760;BME280;3924;48.830;9.262;2023-07-31T09:47:06;98391.88;;;22.91;51.91
7760;BME280;3924;48.830;9.262;2023-07-31T09:49:32;98384.19;;;22.77;52.07
7760;BME280;3924;48.830;9.262;2023-07-31T09:51:59;98387.59;;;22.63;52.35
7760;BME280;3924;48.830;9.262;2023-07-31T09:54:28;98374.94;;;22.59;52.51
7760;BME280;3924;48.830;9.262;2023-07-31T09:56:57;98369.81;;;22.61;52.28
7760;BME280;3924;48.830;9.262;2023-07-31T09:59:24;98364.84;;;22.74;52.12
7760;BME280;3924;48.830;9.262;2023-07-31T10:01:52;98365.81;;;22.92;51.78
7760;BME280;3924;48.830;9.262;2023-07-31T10:04:25;98354.63;;;23.18;51.26
7760;BME280;3924;48.830;9.262;2023-07-31T10:06:53;98365.28;;;23.16;51.30
7760;BME280;3924;48.830;9.262;2023-07-31T10:09:21;98364.13;;;22.84;51.85
7760;BME280;3924;48.830;9.262;2023-07-31T10:11:55;98359.88;;;22.56;52.89
7760;BME280;3924;48.830;9.262;2023-07-31T10:14:23;98343.66;;;22.51;52.73
7760;BME280;3924;48.830;9.262;2023-07-31T10:16:50;98340.28;;;22.69;52.39
7760;BME280;3924;48.830;9.262;2023-07-31T10:19:18;98344.56;;;22.96;51.77
7760;BME280;3924;48.830;9.262;2023-07-31T10:21:46;98344.34;;;23.15;51.40
7760;BME280;3924;48.830;9.262;2023-07-31T10:24:15;98344.56;;;22.96;51.66
7760;BME280;3924;48.830;9.262;2023-07-31T10:26:44;98348.72;;;22.83;51.93
7760;BME280;3924;48.830;9.262;2023-07-31T10:29:12;98341.06;;;22.69;52.10
7760;BME280;3924;48.830;9.262;2023-07-31T10:31:39;98337.84;;;22.63;52.24
7760;BME280;3924;48.830;9.262;2023-07-31T10:34:07;98337.06;;;22.63;52.27
7760;BME280;3924;48.830;9.262;2023-07-31T10:36:34;98332.00;;;22.69;52.20
7760;BME280;3924;48.830;9.262;2023-07-31T10:39:03;98316.66;;;22.75;51.96
7760;BME280;3924;48.830;9.262;2023-07-31T10:41:31;98318.72;;;22.85;52.01
7760;BME280;3924;48.830;9.262;2023-07-31T10:44:00;98319.88;;;22.80;51.92
7760;BME280;3924;48.830;9.262;2023-07-31T10:46:30;98337.22;;;22.77;51.97
7760;BME280;3924;48.830;9.262;2023-07-31T10:48:58;98334.81;;;22.72;51.87
7760;BME280;3924;48.830;9.262;2023-07-31T10:51:33;98326.06;;;22.70;52.06
7760;BME280;3924;48.830;9.262;2023-07-31T10:54:14;98327.22;;;22.99;51.53
7760;BME280;3924;48.830;9.262;2023-07-31T10:56:45;98320.31;;;23.23;51.16
7760;BME280;3924;48.830;9.262;2023-07-31T10:59:13;98323.41;;;23.14;51.13
7760;BME280;3924;48.830;9.262;2023-07-31T11:04:26;98313.84;;;23.08;51.29
7760;BME280;3924;48.830;9.262;2023-07-31T11:06:58;98296.19;;;23.20;50.96
7760;BME280;3924;48.830;9.262;2023-07-31T11:09:30;98302.41;;;23.06;51.25
7760;BME280;3924;48.830;9.262;2023-07-31T11:11:58;98304.22;;;22.91;51.46
7760;BME280;3924;48.830;9.262;2023-07-31T11:14:25;98296.97;;;22.80;51.61
7760;BME280;3924;48.830;9.262;2023-07-31T11:16:52;98300.09;;;22.78;51.82
7760;BME280;3924;48.830;9.262;2023-07-31T11:19:22;98300.91;;;22.79;51.56
7760;BME280;3924;48.830;9.262;2023-07-31T11:21:51;98303.00;;;22.89;51.70
7760;BME280;3924;48.830;9.262;2023-07-31T11:24:19;98299.50;;;22.96;51.62
7760;BME280;3924;48.830;9.262;2023-07-31T11:26:52;98297.31;;;23.15;50.92
7760;BME280;3924;48.830;9.262;2023-07-31T11:29:19;98292.19;;;23.17;50.58
7760;BME280;3924;48.830;9.262;2023-07-31T11:31:47;98280.00;;;23.26;50.77
7760;BME280;3924;48.830;9.262;2023-07-31T11:34:14;98285.72;;;23.47;50.21
7760;BME280;3924;48.830;9.262;2023-07-31T11:36:40;98298.22;;;23.82;49.96
7760;BME280;3924;48.830;9.262;2023-07-31T11:39:09;98287.50;;;23.80;49.49
7760;BME280;3924;48.830;9.262;2023-07-31T11:41:36;98288.66;;;23.68;49.82
7760;BME280;3924;48.830;9.262;2023-07-31T11:44:02;98284.66;;;23.66;49.74
7760;BME280;3924;48.830;9.262;2023-07-31T11:46:46;98285.75;;;23.54;50.04
7760;BME280;3924;48.830;9.262;2023-07-31T11:49:14;98277.78;;;23.42;50.27
7760;BME280;3924;48.830;9.262;2023-07-31T11:51:41;98272.16;;;23.31;50.47
7760;BME280;3924;48.830;9.262;2023-07-31T11:54:08;98267.34;;;23.25;50.58
7760;BME280;3924;48.830;9.262;2023-07-31T11:56:35;98270.69;;;23.48;50.23
7760;BME280;3924;48.830;9.262;2023-07-31T11:59:02;98260.34;;;24.07;49.29
7760;BME280;3924;48.830;9.262;2023-07-31T12:01:30;98258.84;;;24.24;48.82
7760;BME280;3924;48.830;9.262;2023-07-31T12:03:57;98256.81;;;24.10;49.31
7760;BME280;3924;48.830;9.262;2023-07-31T12:06:35;98249.25;;;24.00;49.59
7760;BME280;3924;48.830;9.262;2023-07-31T12:09:06;98243.34;;;24.05;49.13
7760;BME280;3924;48.830;9.262;2023-07-31T12:11:46;98245.66;;;23.92;49.14
7760;BME280;3924;48.830;9.262;2023-07-31T12:14:25;98253.50;;;23.80;49.49
7760;BME280;3924;48.830;9.262;2023-07-31T12:16:56;98240.81;;;23.71;50.08
7760;BME280;3924;48.830;9.262;2023-07-31T12:19:25;98240.75;;;23.61;50.44
7760;BME280;3924;48.830;9.262;2023-07-31T12:21:54;98240.63;;;23.43;50.40
7760;BME280;3924;48.830;9.262;2023-07-31T12:24:21;98230.63;;;23.28;50.87
7760;BME280;3924;48.830;9.262;2023-07-31T12:26:48;98231.75;;;23.19;50.93
7760;BME280;3924;48.830;9.262;2023-07-31T12:29:15;98235.28;;;23.16;51.11
7760;BME280;3924;48.830;9.262;2023-07-31T12:31:41;98236.09;;;23.17;51.18
7760;BME280;3924;48.830;9.262;2023-07-31T12:34:18;98236.91;;;23.21;51.39
7760;BME280;3924;48.830;9.262;2023-07-31T12:36:47;98230.25;;;23.29;51.03
7760;BME280;3924;48.830;9.262;2023-07-31T12:39:15;98216.81;;;23.28;51.05
7760;BME280;3924;48.830;9.262;2023-07-31T12:41:42;98216.81;;;23.28;50.98
7760;BME280;3924;48.830;9.262;2023-07-31T12:44:08;98209.69;;;23.30;51.03
7760;BME280;3924;48.830;9.262;2023-07-31T12:46:36;98206.94;;;23.27;51.06
7760;BME280;3924;48.830;9.262;2023-07-31T12:49:03;98201.75;;;23.22;51.02
7760;BME280;3924;48.830;9.262;2023-07-31T12:51:30;98201.31;;;23.19;51.31
7760;BME280;3924;48.830;9.262;2023-07-31T12:53:56;98196.97;;;23.18;51.00
7760;BME280;3924;48.830;9.262;2023-07-31T12:56:23;98195.38;;;23.17;51.24
7760;BME280;3924;48.830;9.262;2023-07-31T12:58:49;98198.53;;;23.16;51.36
7760;BME280;3924;48.830;9.262;2023-07-31T13:01:16;98196.13;;;23.11;51.53
7760;BME280;3924;48.830;9.262;2023-07-31T13:03:42;98190.94;;;23.02;51.47
7760;BME280;3924;48.830;9.262;2023-07-31T13:06:09;98184.19;;;22.96;51.61
7760;BME280;3924;48.830;9.262;2023-07-31T13:08:35;98184.97;;;22.93;51.58
7760;BME280;3924;48.830;9.262;2023-07-31T13:11:02;98181.75;;;22.91;51.48
7760;BME280;3924;48.830;9.262;2023-07-31T13:13:28;98183.34;;;22.88;51.64
7760;BME280;3924;48.830;9.262;2023-07-31T13:15:58;98186.03;;;22.85;51.66
7760;BME280;3924;48.830;9.262;2023-07-31T13:18:25;98178.13;;;22.80;51.78
7760;BME280;3924;48.830;9.262;2023-07-31T13:20:51;98181.63;;;22.77;51.63
7760;BME280;3924;48.830;9.262;2023-07-31T13:23:18;98184.81;;;22.79;51.71
7760;BME280;3924;48.830;9.262;2023-07-31T13:25:44;98181.66;;;22.80;51.66
7760;BME280;3924;48.830;9.262;2023-07-31T13:28:11;98172.16;;;22.78;51.93
7760;BME280;3924;48.830;9.262;2023-07-31T13:30:37;98172.94;;;22.75;51.78
7760;BME280;3924;48.830;9.262;2023-07-31T13:33:04;98171.81;;;22.83;51.79
7760;BME280;3924;48.830;9.262;2023-07-31T13:35:30;98163.25;;;22.95;51.32
7760;BME280;3924;48.830;9.262;2023-07-31T13:37:58;98163.72;;;23.11;50.98